Terminal Aerodrome Forecast
Issued by NWS

Home | Current Version | Previous Version | Text Only | Print | Product List | Glossary On
Versions: 1 2 3 4 5 6 7 8 9 10 11 12 13 14 15 16 17 18 19 20 21 22 23 24 25 26 27 28 29 30 31 32 33 34 35
000
FTUS43 KPAH 120958 AAA
TAFOWB
TAF AMD
KOWB 120958Z 1210/1306 00000KT 6SM -SN BR OVC025
      TEMPO 1210/1213 1 1/2SM -SN BR OVC010
     FM121300 33002KT P6SM -SN BKN015 OVC035
     FM121600 30006KT P6SM BKN015 OVC030
      TEMPO 1220/1222 -SN
     FM130000 33012KT P6SM OVC024=

USA.gov is the U.S. government's official web portal to all federal, state and local government web resources and services.